createdAt,value
2022-12-01T00:00:00.307Z,25.33
2022-12-01T00:02:30.712Z,27.40
2022-12-01T00:04:58.195Z,26.80
2022-12-01T00:07:25.495Z,24.60
2022-12-01T00:10:13.320Z,25.20
2022-12-01T00:12:43.553Z,26.05
2022-12-01T00:15:11.519Z,25.23
2022-12-01T00:17:39.354Z,24.77
2022-12-01T00:20:07.701Z,26.02
2022-12-01T00:22:35.093Z,30.17
2022-12-01T00:25:02.462Z,26.38
2022-12-01T00:27:29.820Z,27.05
2022-12-01T00:29:57.229Z,25.58
2022-12-01T00:32:24.454Z,27.90
2022-12-01T00:34:51.869Z,25.15
2022-12-01T00:37:19.108Z,24.30
2022-12-01T00:39:47.285Z,29.40
2022-12-01T00:42:14.840Z,25.77
2022-12-01T00:44:42.200Z,25.42
2022-12-01T00:47:09.537Z,25.08
2022-12-01T00:49:36.886Z,28.10
2022-12-01T00:52:04.299Z,25.40
2022-12-01T00:54:32.264Z,29.50
2022-12-01T00:57:00.395Z,26.38
2022-12-01T00:59:27.812Z,26.23
2022-12-01T01:01:55.232Z,26.02
2022-12-01T01:04:22.649Z,28.70
2022-12-01T01:06:50.082Z,30.30
2022-12-01T01:09:17.715Z,27.65
2022-12-01T01:11:44.875Z,27.88
2022-12-01T01:14:12.185Z,27.50
2022-12-01T01:16:39.610Z,28.42
2022-12-01T01:19:07.044Z,29.45
2022-12-01T01:21:34.289Z,27.80
2022-12-01T01:24:01.976Z,29.05
2022-12-01T01:26:30.840Z,30.67
2022-12-01T01:28:59.253Z,26.20
2022-12-01T01:31:27.557Z,26.70
2022-12-01T01:33:55.906Z,29.45
2022-12-01T01:36:24.010Z,28.48
2022-12-01T01:38:51.963Z,26.52
2022-12-01T01:41:19.976Z,28.20
2022-12-01T01:43:51.639Z,28.23
2022-12-01T01:46:25.448Z,27.60
2022-12-01T01:49:00.164Z,30.50
2022-12-01T01:51:30.471Z,28.40
2022-12-01T01:53:59.956Z,27.85
2022-12-01T01:56:27.289Z,26.70
2022-12-01T01:58:55.012Z,32.45
2022-12-01T02:01:22.575Z,26.73
2022-12-01T02:03:51.686Z,29.08
2022-12-01T02:06:19.140Z,29.02
2022-12-01T02:08:46.605Z,28.38
2022-12-01T02:11:31.495Z,28.42
2022-12-01T02:14:06.640Z,33.75
2022-12-01T02:16:54.132Z,33.10
2022-12-01T02:19:30.595Z,30.08
2022-12-01T02:22:09.486Z,32.90
2022-12-01T02:24:53.032Z,29.58
2022-12-01T02:27:31.624Z,30.83
2022-12-01T02:30:02.355Z,32.22
2022-12-01T02:32:29.683Z,32.35
2022-12-01T02:34:59.917Z,30.55
2022-12-01T02:37:32.076Z,34.28
2022-12-01T02:40:27.593Z,31.80
2022-12-01T02:43:15.183Z,30.45
2022-12-01T02:45:46.396Z,31.05
2022-12-01T02:48:16.972Z,30.35
2022-12-01T02:50:45.099Z,28.10
2022-12-01T02:53:13.704Z,32.25
2022-12-01T02:55:48.161Z,32.05
2022-12-01T02:58:16.098Z,31.63
2022-12-01T03:00:49.808Z,30.58
2022-12-01T03:03:35.675Z,32.08
2022-12-01T03:06:12.593Z,31.95
2022-12-01T03:08:48.908Z,31.25
2022-12-01T03:11:27.325Z,30.02
2022-12-01T03:14:04.522Z,34.67
2022-12-01T03:16:39.843Z,32.97
2022-12-01T03:19:10.884Z,33.75
2022-12-01T03:21:48.771Z,36.85
2022-12-01T03:24:18.068Z,36.30
2022-12-01T03:26:48.372Z,34.03
2022-12-01T03:29:18.991Z,35.80
2022-12-01T03:31:49.442Z,34.92
2022-12-01T03:34:25.115Z,33.63
2022-12-01T03:36:56.746Z,35.50
2022-12-01T03:39:27.058Z,31.95
2022-12-01T03:41:57.231Z,35.38
2022-12-01T03:44:27.619Z,33.10
2022-12-01T03:46:58.210Z,36.33
2022-12-01T03:49:26.913Z,33.65
2022-12-01T03:51:56.919Z,36.33
2022-12-01T03:54:31.561Z,30.63
2022-12-01T03:57:03.090Z,36.78
2022-12-01T03:59:31.255Z,34.05
2022-12-01T04:01:59.035Z,36.50
2022-12-01T04:04:26.574Z,32.03
2022-12-01T04:06:53.963Z,33.33
2022-12-01T04:09:21.522Z,34.97
2022-12-01T04:12:07.773Z,33.85
2022-12-01T04:14:35.294Z,33.70
2022-12-01T04:17:03.240Z,33.88
2022-12-01T04:19:30.629Z,33.85
2022-12-01T04:21:58.020Z,33.55
2022-12-01T04:24:25.409Z,33.35
2022-12-01T04:26:52.634Z,34.83
2022-12-01T04:29:20.135Z,34.00
2022-12-01T04:31:47.508Z,31.35
2022-12-01T04:34:14.833Z,33.25
2022-12-01T04:36:42.169Z,33.78
2022-12-01T04:39:09.671Z,31.42
2022-12-01T04:41:36.890Z,32.85
2022-12-01T04:44:04.382Z,32.22
2022-12-01T04:46:31.703Z,34.88
2022-12-01T04:48:59.130Z,30.38
2022-12-01T04:51:26.510Z,33.28
2022-12-01T04:53:54.008Z,32.78
2022-12-01T04:56:21.198Z,34.92
2022-12-01T04:58:48.623Z,33.67
2022-12-01T05:01:16.547Z,34.92
2022-12-01T05:03:45.331Z,32.97
2022-12-01T05:06:14.387Z,34.40
2022-12-01T05:08:42.028Z,37.95
2022-12-01T05:11:11.652Z,36.13
2022-12-01T05:13:42.970Z,33.28
2022-12-01T05:16:15.242Z,32.95
2022-12-01T05:18:43.155Z,31.02
2022-12-01T05:21:11.676Z,33.63
2022-12-01T05:23:39.426Z,34.85
2022-12-01T05:26:07.796Z,31.58
2022-12-01T05:28:35.363Z,34.38
2022-12-01T05:31:03.130Z,34.47
2022-12-01T05:33:30.702Z,36.00
2022-12-01T05:35:58.103Z,37.50
2022-12-01T05:38:25.515Z,35.97
2022-12-01T05:40:54.074Z,33.63
2022-12-01T05:43:27.154Z,34.10
2022-12-01T05:45:57.083Z,37.20
2022-12-01T05:48:24.584Z,35.63
2022-12-01T05:50:52.199Z,38.80
2022-12-01T05:53:20.248Z,36.58
2022-12-01T05:55:47.601Z,40.30
2022-12-01T05:58:14.810Z,39.22
2022-12-01T06:00:45.921Z,41.28
2022-12-01T06:03:13.764Z,38.55
2022-12-01T06:05:41.303Z,38.78
2022-12-01T06:08:08.952Z,40.33
2022-12-01T06:10:36.326Z,38.65
2022-12-01T06:13:03.669Z,36.05
2022-12-01T06:15:31.026Z,40.70
2022-12-01T06:18:04.767Z,37.00
2022-12-01T06:20:34.792Z,38.92
2022-12-01T06:23:02.178Z,38.70
2022-12-01T06:25:29.531Z,37.08
2022-12-01T06:27:59.778Z,36.85
2022-12-01T06:30:27.304Z,38.88
2022-12-01T06:32:54.519Z,34.60
2022-12-01T06:35:22.017Z,38.35
2022-12-01T06:37:49.478Z,40.50
2022-12-01T06:40:16.968Z,39.75
2022-12-01T06:42:44.335Z,35.00
2022-12-01T06:45:11.906Z,37.45
2022-12-01T06:47:39.309Z,35.30
2022-12-01T06:50:08.955Z,34.92
2022-12-01T06:52:37.085Z,39.63
2022-12-01T06:55:05.316Z,36.60
2022-12-01T06:57:32.860Z,38.55
2022-12-01T07:00:00.345Z,40.42
2022-12-01T07:02:27.917Z,36.55
2022-12-01T07:04:55.320Z,36.63
2022-12-01T07:07:22.702Z,38.65
2022-12-01T07:09:50.283Z,39.30
2022-12-01T07:12:17.823Z,38.22
2022-12-01T07:14:46.062Z,40.83
2022-12-01T07:17:13.301Z,36.10
2022-12-01T07:19:40.722Z,35.92
2022-12-01T07:22:07.951Z,35.67
2022-12-01T07:24:36.214Z,35.90
2022-12-01T07:27:03.906Z,33.40
2022-12-01T07:29:31.204Z,37.13
2022-12-01T07:31:58.456Z,37.42
2022-12-01T07:34:25.865Z,34.83
2022-12-01T07:36:53.138Z,40.30
2022-12-01T07:39:20.552Z,35.03
2022-12-01T07:41:48.120Z,37.17
2022-12-01T07:44:15.492Z,37.83
2022-12-01T07:46:42.966Z,34.17
2022-12-01T07:49:11.948Z,35.08
2022-12-01T07:51:39.153Z,37.72
2022-12-01T07:54:07.157Z,36.30
2022-12-01T07:56:34.518Z,37.95
2022-12-01T07:59:01.950Z,33.70
2022-12-01T08:01:29.242Z,38.33
2022-12-01T08:03:57.470Z,31.05
2022-12-01T08:06:25.791Z,37.80
2022-12-01T08:08:53.231Z,31.35
2022-12-01T08:11:22.362Z,37.30
2022-12-01T08:13:49.981Z,32.67
2022-12-01T08:16:18.298Z,32.50
2022-12-01T08:18:46.038Z,33.15
2022-12-01T08:21:14.782Z,33.53
2022-12-01T08:23:42.830Z,36.97
2022-12-01T08:26:14.996Z,37.03
2022-12-01T08:28:45.042Z,38.33
2022-12-01T08:31:16.747Z,48.83
2022-12-01T08:33:44.133Z,43.85
2022-12-01T08:36:11.414Z,53.08
2022-12-01T08:38:38.944Z,48.17
2022-12-01T08:41:07.645Z,50.15
2022-12-01T08:46:32.731Z,52.45
2022-12-01T08:49:00.417Z,58.72
2022-12-01T08:51:27.692Z,56.95
2022-12-01T08:53:58.032Z,56.85
2022-12-01T08:56:29.611Z,52.47
2022-12-01T08:58:58.078Z,54.60
2022-12-01T09:01:28.713Z,56.47
2022-12-01T09:04:07.848Z,54.92
2022-12-01T09:06:39.073Z,54.50
2022-12-01T09:09:06.645Z,57.25
2022-12-01T09:11:34.054Z,54.35
2022-12-01T09:14:01.467Z,59.53
2022-12-01T09:16:28.789Z,56.60
2022-12-01T09:18:56.568Z,51.35
2022-12-01T09:21:25.382Z,47.85
2022-12-01T09:23:52.858Z,54.13
2022-12-01T09:26:20.451Z,48.00
2022-12-01T09:28:48.558Z,54.15
2022-12-01T09:31:16.563Z,50.72
2022-12-01T09:33:44.021Z,54.70
2022-12-01T09:36:11.609Z,56.22
2022-12-01T09:38:39.317Z,48.67
2022-12-01T09:41:09.144Z,59.92
2022-12-01T09:43:45.733Z,49.83
2022-12-01T09:46:17.998Z,51.75
2022-12-01T09:48:47.797Z,45.75
2022-12-01T09:51:19.942Z,50.15
2022-12-01T09:53:49.337Z,49.42
2022-12-01T09:56:24.229Z,43.72
2022-12-01T09:58:55.497Z,48.35
2022-12-01T10:01:27.940Z,45.50
2022-12-01T10:03:57.818Z,40.80
2022-12-01T10:06:45.445Z,51.60
2022-12-01T10:09:24.577Z,73.10
2022-12-01T10:11:54.486Z,100.38
2022-12-01T10:14:22.545Z,60.72
2022-12-01T10:16:56.348Z,40.25
2022-12-01T10:19:32.959Z,36.97
2022-12-01T10:22:16.815Z,35.20
2022-12-01T10:25:04.354Z,33.20
2022-12-01T10:27:34.568Z,32.72
2022-12-01T10:30:05.048Z,33.25
2022-12-01T10:32:32.726Z,33.60
2022-12-01T10:35:00.542Z,33.13
2022-12-01T10:37:31.377Z,32.33
2022-12-01T10:39:59.305Z,30.48
2022-12-01T10:42:26.731Z,32.88
2022-12-01T10:44:54.918Z,34.97
2022-12-01T10:47:23.370Z,30.60
2022-12-01T10:49:51.052Z,27.83
2022-12-01T10:52:35.701Z,31.45
2022-12-01T10:55:04.549Z,31.40
2022-12-01T10:57:32.173Z,31.13
2022-12-01T11:00:04.252Z,30.42
2022-12-01T11:02:32.236Z,28.30
2022-12-01T11:05:01.859Z,24.17
2022-12-01T11:07:31.050Z,28.15
2022-12-01T11:10:02.768Z,23.13
2022-12-01T11:12:30.216Z,25.92
2022-12-01T11:14:57.731Z,24.60
2022-12-01T11:17:27.990Z,26.45
2022-12-01T11:19:55.334Z,29.98
2022-12-01T11:22:26.814Z,28.85
2022-12-01T11:24:54.316Z,27.83
2022-12-01T11:27:23.280Z,29.27
2022-12-01T11:29:52.649Z,27.75
2022-12-01T11:32:27.125Z,29.52
2022-12-01T11:35:14.886Z,26.25
2022-12-01T11:37:54.904Z,25.25
2022-12-01T11:40:32.274Z,24.02
2022-12-01T11:43:01.393Z,20.85
2022-12-01T11:45:33.354Z,23.10
2022-12-01T11:48:02.824Z,22.83
2022-12-01T11:50:31.591Z,23.40
2022-12-01T11:52:59.106Z,25.15
2022-12-01T11:55:27.834Z,26.33
2022-12-01T11:58:00.586Z,26.80
2022-12-01T12:01:00.356Z,24.52
2022-12-01T12:03:34.567Z,22.80
2022-12-01T12:09:11.689Z,23.48
2022-12-01T12:11:43.267Z,24.38
2022-12-01T12:14:29.425Z,26.65
2022-12-01T12:17:16.305Z,25.33
2022-12-01T12:20:07.226Z,22.75
2022-12-01T12:22:44.802Z,24.95
2022-12-01T12:25:30.802Z,24.52
2022-12-01T12:28:01.146Z,24.98
2022-12-01T12:30:32.170Z,26.85
2022-12-01T12:33:05.689Z,28.30
2022-12-01T12:35:33.041Z,25.70
2022-12-01T12:38:03.354Z,25.48
2022-12-01T12:40:33.929Z,27.45
2022-12-01T12:43:04.497Z,27.52
2022-12-01T12:45:56.168Z,28.58
2022-12-01T12:48:32.740Z,28.48
2022-12-01T12:51:08.368Z,26.42
2022-12-01T12:53:46.816Z,27.80
2022-12-01T12:56:16.194Z,31.92
2022-12-01T12:58:56.507Z,29.58
2022-12-01T13:01:26.769Z,25.45
2022-12-01T13:03:57.222Z,24.83
2022-12-01T13:06:44.784Z,27.73
2022-12-01T13:09:15.357Z,27.58
2022-12-01T13:11:47.227Z,26.40
2022-12-01T13:14:23.651Z,26.23
2022-12-01T13:16:53.089Z,26.05
2022-12-01T13:19:23.162Z,24.08
2022-12-01T13:21:51.951Z,25.08
2022-12-01T13:24:23.358Z,25.67
2022-12-01T13:26:53.655Z,25.15
2022-12-01T13:29:23.179Z,25.75
2022-12-01T13:31:51.610Z,26.80
2022-12-01T13:34:24.770Z,27.80
2022-12-01T13:36:52.662Z,24.42
2022-12-01T13:39:19.882Z,27.02
2022-12-01T13:41:47.673Z,24.65
2022-12-01T13:44:20.210Z,23.65
2022-12-01T13:46:47.908Z,27.38
2022-12-01T13:49:34.418Z,21.80
2022-12-01T13:52:20.352Z,21.98
2022-12-01T13:55:01.381Z,24.23
2022-12-01T13:57:30.199Z,24.05
2022-12-01T14:00:00.225Z,24.10
2022-12-01T14:02:29.860Z,24.20
2022-12-01T14:05:19.304Z,24.35
2022-12-01T14:07:46.729Z,24.20
2022-12-01T14:10:17.298Z,23.08
2022-12-01T14:12:46.617Z,22.77
2022-12-01T14:15:25.650Z,22.52
2022-12-01T14:18:00.841Z,22.65
2022-12-01T14:20:28.552Z,25.60
2022-12-01T14:23:04.843Z,21.90
2022-12-01T14:25:32.385Z,25.58
2022-12-01T14:28:03.658Z,22.00
2022-12-01T14:30:40.523Z,21.67
2022-12-01T14:33:27.612Z,23.55
2022-12-01T14:35:58.765Z,23.40
2022-12-01T14:38:26.757Z,23.92
2022-12-01T14:41:22.588Z,23.48
2022-12-01T14:44:05.273Z,24.88
2022-12-01T14:46:53.081Z,24.35
2022-12-01T14:49:28.952Z,24.00
2022-12-01T14:51:59.808Z,28.15
2022-12-01T14:54:29.794Z,23.80
2022-12-01T14:57:05.611Z,24.70
2022-12-01T14:59:34.243Z,25.40
2022-12-01T15:02:08.981Z,23.95
2022-12-01T15:07:04.249Z,25.10
2022-12-01T15:09:34.620Z,26.98
2022-12-01T15:12:04.112Z,24.17
2022-12-01T15:14:32.798Z,28.27
2022-12-01T15:17:00.233Z,27.92
2022-12-01T15:19:32.045Z,26.95
2022-12-01T15:22:00.405Z,28.90
2022-12-01T15:24:30.993Z,27.98
2022-12-01T15:27:03.777Z,26.20
2022-12-01T15:29:33.446Z,27.08
2022-12-01T15:32:07.032Z,28.92
2022-12-01T15:34:38.899Z,26.23
2022-12-01T15:37:08.678Z,27.40
2022-12-01T15:39:37.618Z,27.88
2022-12-01T15:42:05.180Z,26.80
2022-12-01T15:44:36.261Z,28.23
2022-12-01T15:47:22.438Z,29.73
2022-12-01T15:49:50.309Z,26.40
2022-12-01T15:52:18.693Z,30.50
2022-12-01T15:54:50.029Z,26.67
2022-12-01T15:57:19.300Z,30.60
2022-12-01T15:59:47.640Z,28.85
2022-12-01T16:02:21.173Z,27.70
2022-12-01T16:04:49.489Z,27.42
2022-12-01T16:07:16.964Z,30.63
2022-12-01T16:09:55.835Z,26.80
2022-12-01T16:12:24.940Z,29.13
2022-12-01T16:14:52.585Z,30.05
2022-12-01T16:17:20.272Z,31.30
2022-12-01T16:19:47.538Z,28.63
2022-12-01T16:22:22.432Z,37.28
2022-12-01T16:24:51.760Z,39.03
2022-12-01T16:27:26.629Z,37.42
2022-12-01T16:29:54.945Z,32.90
2022-12-01T16:32:32.229Z,28.20
2022-12-01T16:34:59.878Z,32.47
2022-12-01T16:37:27.873Z,33.15
2022-12-01T16:39:55.306Z,29.60
2022-12-01T16:42:23.084Z,30.50
2022-12-01T16:44:51.611Z,30.30
2022-12-01T16:47:21.056Z,29.48
2022-12-01T16:49:48.440Z,31.35
2022-12-01T16:52:43.020Z,31.15
2022-12-01T16:55:03.108Z,26.48
2022-12-01T16:57:30.294Z,29.45
2022-12-01T16:59:57.522Z,25.50
2022-12-01T17:02:24.887Z,28.30
2022-12-01T17:04:52.430Z,26.17
2022-12-01T17:07:19.968Z,22.88
2022-12-01T17:09:47.714Z,26.98
2022-12-01T17:12:14.902Z,25.63
2022-12-01T17:14:42.412Z,29.92
2022-12-01T17:17:10.050Z,26.95
2022-12-01T17:19:37.354Z,27.98
2022-12-01T17:22:04.599Z,30.17
2022-12-01T17:24:32.044Z,28.05
2022-12-01T17:26:59.372Z,23.70
2022-12-01T17:29:26.666Z,24.80
2022-12-01T17:31:54.158Z,26.45
2022-12-01T17:34:21.472Z,27.50
2022-12-01T17:36:48.684Z,28.75
2022-12-01T17:39:16.167Z,31.83
2022-12-01T17:41:43.706Z,26.15
2022-12-01T17:44:10.991Z,26.00
2022-12-01T17:46:38.709Z,30.13
2022-12-01T17:49:09.436Z,26.77
2022-12-01T17:51:40.337Z,27.70
2022-12-01T17:54:07.688Z,26.00
2022-12-01T17:56:35.152Z,29.15
2022-12-01T17:59:02.985Z,30.30
2022-12-01T18:01:30.828Z,30.02
2022-12-01T18:03:59.123Z,29.90
2022-12-01T18:06:27.014Z,34.28
2022-12-01T18:08:54.951Z,29.60
2022-12-01T18:11:22.874Z,28.17
2022-12-01T18:13:51.469Z,31.50
2022-12-01T18:16:20.324Z,32.03
2022-12-01T18:18:47.919Z,31.75
2022-12-01T18:21:16.905Z,31.35
2022-12-01T18:23:49.676Z,31.23
2022-12-01T18:26:17.281Z,41.17
2022-12-01T18:28:44.688Z,28.50
2022-12-01T18:31:13.238Z,32.75
2022-12-01T18:33:41.891Z,30.42
2022-12-01T18:36:14.408Z,32.40
2022-12-01T18:38:42.172Z,32.20
2022-12-01T18:41:09.734Z,33.13
2022-12-01T18:43:37.100Z,30.20
2022-12-01T18:46:05.439Z,31.38
2022-12-01T18:48:33.330Z,30.23
2022-12-01T18:51:04.023Z,29.30
2022-12-01T18:53:31.538Z,31.60
2022-12-01T18:56:03.324Z,29.70
2022-12-01T18:58:30.932Z,34.65
2022-12-01T19:00:58.343Z,30.20
2022-12-01T19:03:26.492Z,32.85
2022-12-01T19:05:53.769Z,30.85
2022-12-01T19:08:21.317Z,28.67
2022-12-01T19:10:58.681Z,31.33
2022-12-01T19:13:26.182Z,36.80
2022-12-01T19:15:53.512Z,35.08
2022-12-01T19:18:20.994Z,39.70
2022-12-01T19:20:48.611Z,36.55
2022-12-01T19:23:16.181Z,38.40
2022-12-01T19:25:43.526Z,31.10
2022-12-01T19:28:11.156Z,33.30
2022-12-01T19:30:42.870Z,29.27
2022-12-01T19:33:14.800Z,30.05
2022-12-01T19:35:42.366Z,31.45
2022-12-01T19:38:10.821Z,30.55
2022-12-01T19:40:38.920Z,28.27
2022-12-01T19:43:06.307Z,32.33
2022-12-01T19:45:35.508Z,28.98
2022-12-01T19:48:04.216Z,32.58
2022-12-01T19:50:34.129Z,28.85
2022-12-01T19:53:01.802Z,31.25
2022-12-01T19:55:29.315Z,28.52
2022-12-01T19:57:56.724Z,27.20
2022-12-01T20:00:25.839Z,28.08
2022-12-01T20:02:53.432Z,26.33
2022-12-01T20:05:20.693Z,26.95
2022-12-01T20:07:48.214Z,26.77
2022-12-01T20:10:20.217Z,29.40
2022-12-01T20:12:48.077Z,32.60
2022-12-01T20:15:15.975Z,30.08
2022-12-01T20:17:43.951Z,30.05
2022-12-01T20:20:11.910Z,31.98
2022-12-01T20:22:39.601Z,29.63
2022-12-01T20:25:07.409Z,27.10
2022-12-01T20:27:34.845Z,30.90
2022-12-01T20:30:02.178Z,34.00
2022-12-01T20:32:30.039Z,40.22
2022-12-01T20:34:57.417Z,45.28
2022-12-01T20:37:24.784Z,345.17
2022-12-01T20:39:52.360Z,161.00
2022-12-01T20:42:22.298Z,188.63
2022-12-01T20:44:49.955Z,243.75
2022-12-01T20:47:21.247Z,227.20
2022-12-01T20:49:48.657Z,92.15
2022-12-01T20:52:15.975Z,68.80
2022-12-01T20:54:44.832Z,85.80
2022-12-01T20:57:12.124Z,30.40
2022-12-01T20:59:39.655Z,28.10
2022-12-01T21:02:06.959Z,26.85
2022-12-01T21:04:34.310Z,35.55
2022-12-01T21:07:01.570Z,28.90
2022-12-01T21:09:29.196Z,28.33
2022-12-01T21:12:15.993Z,27.85
2022-12-01T21:14:45.510Z,28.65
2022-12-01T21:17:31.584Z,29.45
2022-12-01T21:20:07.115Z,25.92
2022-12-01T21:22:34.456Z,29.48
2022-12-01T21:25:11.683Z,29.58
2022-12-01T21:27:39.070Z,27.33
2022-12-01T21:30:15.282Z,25.45
2022-12-01T21:32:48.705Z,27.52
2022-12-01T21:35:19.755Z,26.52
2022-12-01T21:37:47.800Z,28.05
2022-12-01T21:40:17.564Z,25.33
2022-12-01T21:42:45.172Z,29.02
2022-12-01T21:45:18.508Z,28.95
2022-12-01T21:47:45.956Z,28.15
2022-12-01T21:50:17.308Z,28.52
2022-12-01T21:52:45.366Z,26.38
2022-12-01T21:55:15.664Z,29.40
2022-12-01T21:57:44.704Z,25.73
2022-12-01T22:00:24.607Z,28.45
2022-12-01T22:02:53.374Z,25.80
2022-12-01T22:05:39.322Z,26.02
2022-12-01T22:08:15.529Z,27.45
2022-12-01T22:10:57.900Z,28.20
2022-12-01T22:13:26.854Z,23.38
2022-12-01T22:15:55.297Z,27.10
2022-12-01T22:18:42.497Z,27.65
2022-12-01T22:21:27.722Z,24.75
2022-12-01T22:24:00.248Z,24.27
2022-12-01T22:26:27.700Z,26.55
2022-12-01T22:28:56.996Z,24.60
2022-12-01T22:31:24.668Z,24.90
2022-12-01T22:34:00.051Z,26.95
2022-12-01T22:36:31.819Z,23.67
2022-12-01T22:38:59.513Z,23.35
2022-12-01T22:41:28.717Z,26.58
2022-12-01T22:43:56.844Z,25.60
2022-12-01T22:46:24.211Z,23.35
2022-12-01T22:49:02.426Z,25.55
2022-12-01T22:51:31.553Z,23.58
2022-12-01T22:54:00.518Z,27.17
2022-12-01T22:56:30.705Z,24.02
2022-12-01T22:58:58.273Z,24.40
2022-12-01T23:01:27.337Z,27.75
2022-12-01T23:04:13.404Z,26.20
2022-12-01T23:06:53.161Z,25.73
2022-12-01T23:09:21.574Z,26.88
2022-12-01T23:12:11.623Z,26.02
2022-12-01T23:14:49.564Z,27.60
2022-12-01T23:17:25.091Z,25.65
2022-12-01T23:19:53.622Z,24.45
2022-12-01T23:22:20.860Z,26.45
2022-12-01T23:24:48.404Z,29.20
2022-12-01T23:27:17.490Z,24.92
2022-12-01T23:29:44.953Z,21.83
2022-12-01T23:32:12.579Z,28.92
2022-12-01T23:34:40.264Z,23.08
2022-12-01T23:37:16.245Z,27.83
2022-12-01T23:39:43.580Z,26.30
2022-12-01T23:42:12.747Z,24.30
2022-12-01T23:44:47.514Z,27.05
2022-12-01T23:47:20.101Z,24.38
2022-12-01T23:49:48.066Z,29.30
2022-12-01T23:52:19.093Z,26.85
2022-12-01T23:54:47.059Z,26.80
2022-12-01T23:57:20.617Z,25.70
2022-12-01T23:59:48.993Z,30.15
